Time;durP1;ratioP1;P1;durP2;ratioP2;P2;SDS_P1;SDS_P2;PMS_P1;PMS_P2;Temp;Humidity;BMP_temperature;BMP_pressure;BME280_temperature;BME280_humidity;BME280_pressure;Samples;Min_cycle;Max_cycle;Signal;HPM_P1;HPM_P2
2022/06/01 00:01:11;;;;;;;46.47;33.55;;;460.90;2380.80;;;;;;5080891;28;20101;-75
2022/06/01 00:03:39;;;;;;;55.10;35.28;;;460.90;2380.80;;;;;;5082831;28;20035;-74
2022/06/01 00:06:05;;;;;;;51.80;34.97;;;460.90;2380.80;;;;;;5079716;28;20024;-75
2022/06/01 00:08:31;;;;;;;51.40;33.92;;;460.90;2380.80;;;;;;5081786;28;20485;-75
2022/06/01 00:10:57;;;;;;;54.10;34.58;;;460.90;2380.80;;;;;;5080299;28;20099;-75
2022/06/01 00:13:24;;;;;;;51.90;33.60;;;460.90;2380.80;;;;;;5087615;28;20037;-75
2022/06/01 00:15:50;;;;;;;54.33;34.03;;;460.90;2380.80;;;;;;5091679;28;20066;-76
2022/06/01 00:18:16;;;;;;;50.33;33.25;;;460.90;2380.80;;;;;;5091674;28;20028;-75
2022/06/01 00:20:42;;;;;;;45.10;32.55;;;460.90;2380.80;;;;;;5093938;28;20032;-75
2022/06/01 00:23:08;;;;;;;47.88;32.75;;;460.90;2380.80;;;;;;5086071;28;20027;-74
2022/06/01 00:25:35;;;;;;;46.60;32.58;;;461.00;2380.80;;;;;;5083810;28;20036;-75
2022/06/01 00:28:01;;;;;;;51.90;31.70;;;461.00;2380.80;;;;;;5084652;28;20121;-75
2022/06/01 00:30:28;;;;;;;44.42;29.75;;;460.90;2380.80;;;;;;5084382;28;20054;-75
2022/06/01 00:32:54;;;;;;;47.15;32.47;;;460.80;2380.80;;;;;;5083094;28;20020;-75
2022/06/01 00:35:22;;;;;;;45.40;30.88;;;460.80;2380.80;;;;;;5081671;28;20089;-75
2022/06/01 00:37:47;;;;;;;50.53;29.52;;;436.10;2355.20;;;;;;5088098;28;20031;-75
2022/06/01 00:40:16;;;;;;;42.10;28.92;;;436.10;2355.20;;;;;;5085834;28;20032;-75
2022/06/01 00:42:44;;;;;;;46.40;30.83;;;436.10;2355.20;;;;;;5082659;28;20478;-75
2022/06/01 00:45:13;;;;;;;44.10;29.85;;;436.10;2355.20;;;;;;5082920;28;20114;-75
2022/06/01 00:47:39;;;;;;;46.28;30.17;;;436.10;2355.20;;;;;;5083597;28;20013;-75
2022/06/01 00:50:08;;;;;;;49.20;30.33;;;436.00;2355.20;;;;;;5083620;28;20024;-75
2022/06/01 00:52:36;;;;;;;43.08;28.20;;;436.00;2355.20;;;;;;5083942;28;20420;-74
2022/06/01 00:55:28;;;;;;;42.80;29.25;;;436.10;2355.20;;;;;;5083722;28;20012;-75
2022/06/01 00:58:05;;;;;;;41.03;27.70;;;460.80;2380.80;;;;;;5072132;28;20127;-76
2022/06/01 01:00:33;;;;;;;39.00;27.85;;;460.80;2380.80;;;;;;5084738;28;20035;-75
2022/06/01 01:03:05;;;;;;;35.92;25.92;;;460.80;2380.80;;;;;;5082154;28;20025;-76
2022/06/01 01:05:33;;;;;;;35.38;23.92;;;460.80;2380.80;;;;;;5083988;28;20564;-75
2022/06/01 01:08:02;;;;;;;41.53;26.00;;;436.10;2355.20;;;;;;5081590;28;20382;-75
2022/06/01 01:10:28;;;;;;;41.63;27.95;;;436.10;2355.20;;;;;;5083544;28;20028;-75
2022/06/01 01:12:58;;;;;;;39.80;29.17;;;436.10;2355.20;;;;;;5083252;28;20020;-75
2022/06/01 01:15:32;;;;;;;42.05;26.25;;;460.80;2380.80;;;;;;5082455;28;20158;-76
2022/06/01 01:17:59;;;;;;;39.92;27.33;;;460.80;2380.80;;;;;;5082858;28;20397;-75
2022/06/01 01:20:27;;;;;;;42.75;27.30;;;436.10;2355.20;;;;;;5089571;28;20105;-76
2022/06/01 01:23:23;;;;;;;42.85;26.33;;;436.10;2355.20;;;;;;5092906;28;20032;-76
2022/06/01 01:25:50;;;;;;;40.47;27.27;;;436.10;2355.20;;;;;;5084135;28;20099;-76
2022/06/01 01:28:15;;;;;;;37.25;25.17;;;436.10;2355.20;;;;;;5083053;28;20032;-76
2022/06/01 01:30:50;;;;;;;37.95;25.85;;;436.10;2355.20;;;;;;5082577;28;20131;-75
2022/06/01 01:33:20;;;;;;;40.05;26.30;;;436.10;2355.20;;;;;;5082545;28;20039;-75
2022/06/01 01:35:50;;;;;;;42.50;26.98;;;435.90;2355.20;;;;;;5082871;28;20094;-76
2022/06/01 01:38:31;;;;;;;38.88;27.08;;;435.90;2355.20;;;;;;5081163;28;20097;-75
2022/06/01 01:41:04;;;;;;;41.13;26.25;;;435.80;2355.20;;;;;;5084523;28;20043;-75
2022/06/01 01:43:32;;;;;;;40.25;25.48;;;435.90;2355.20;;;;;;5084027;28;20102;-75
2022/06/01 01:45:58;;;;;;;38.72;25.38;;;435.90;2355.20;;;;;;5096622;28;20426;-75
2022/06/01 01:48:23;;;;;;;42.42;24.85;;;435.80;2355.20;;;;;;5098710;28;20056;-75
2022/06/01 01:50:49;;;;;;;36.53;25.38;;;435.80;2355.20;;;;;;5082049;28;20023;-75
2022/06/01 01:53:15;;;;;;;33.95;24.45;;;435.80;2355.20;;;;;;5083415;28;20036;-75
2022/06/01 01:56:15;;;;;;;32.75;23.63;;;435.90;2355.20;;;;;;5083701;28;20021;-75
2022/06/01 01:58:47;;;;;;;35.33;23.73;;;435.80;2355.20;;;;;;5083589;28;20024;-76
2022/06/01 02:01:19;;;;;;;30.95;22.50;;;435.60;2355.20;;;;;;5082131;28;20528;-75
2022/06/01 02:04:02;;;;;;;35.42;23.50;;;435.60;2355.20;;;;;;5082216;28;20012;-74
2022/06/01 02:06:39;;;;;;;30.73;22.00;;;435.60;2355.20;;;;;;5082774;28;20016;-74
2022/06/01 02:09:09;;;;;;;31.58;23.00;;;435.60;2355.20;;;;;;5083734;28;20020;-77
2022/06/01 02:14:38;;;;;;;36.30;22.83;;;435.50;2355.20;;;;;;5082012;28;20374;-76
2022/06/01 02:17:07;;;;;;;35.38;23.52;;;435.60;2355.20;;;;;;5082351;28;20496;-75
2022/06/01 02:19:35;;;;;;;40.45;22.10;;;435.60;2355.20;;;;;;5082058;28;20025;-76
2022/06/01 02:22:00;;;;;;;41.85;24.20;;;435.50;2355.20;;;;;;5082713;28;20028;-76
2022/06/01 02:24:26;;;;;;;39.65;24.05;;;435.50;2355.20;;;;;;5082113;28;20021;-76
2022/06/01 02:26:54;;;;;;;37.08;22.42;;;435.40;2355.20;;;;;;5080169;28;20111;-76
2022/06/01 02:29:36;;;;;;;29.80;20.85;;;435.40;2355.20;;;;;;5082557;28;20038;-76
2022/06/01 02:32:04;;;;;;;32.58;22.48;;;435.40;2355.20;;;;;;5081992;28;20037;-76
2022/06/01 02:34:31;;;;;;;37.95;23.42;;;435.40;2355.20;;;;;;5081607;28;20025;-76
2022/06/01 02:36:59;;;;;;;30.52;23.00;;;435.50;2355.20;;;;;;5083106;28;20016;-76
2022/06/01 02:39:27;;;;;;;30.05;22.55;;;435.50;2355.20;;;;;;5081764;28;20448;-76
2022/06/01 02:45:14;;;;;;;33.80;23.38;;;435.50;2355.20;;;;;;5081702;28;20044;-76
2022/06/01 02:47:44;;;;;;;33.45;22.63;;;435.60;2355.20;;;;;;5081988;28;20047;-76
2022/06/01 02:50:13;;;;;;;35.30;25.02;;;435.60;2355.20;;;;;;5081080;28;20017;-75
2022/06/01 02:52:40;;;;;;;28.42;21.52;;;435.50;2355.20;;;;;;5082534;28;20458;-76
2022/06/01 02:55:06;;;;;;;29.38;22.95;;;435.40;2355.20;;;;;;5082734;28;20025;-75
2022/06/01 02:57:33;;;;;;;30.98;23.45;;;435.50;2355.20;;;;;;5080112;28;20017;-76
2022/06/01 02:59:59;;;;;;;33.70;22.20;;;435.40;2355.20;;;;;;5082237;28;20127;-75
2022/06/01 03:02:25;;;;;;;33.72;24.70;;;435.50;2355.20;;;;;;5082339;28;20123;-76
2022/06/01 03:04:52;;;;;;;35.40;23.85;;;435.60;2355.20;;;;;;5079626;28;20021;-76
2022/06/01 03:07:18;;;;;;;33.25;23.05;;;435.60;2355.20;;;;;;5081094;28;20074;-76
2022/06/01 03:09:44;;;;;;;42.78;26.35;;;435.60;2355.20;;;;;;5082536;28;20420;-76
2022/06/01 03:12:10;;;;;;;33.17;25.15;;;435.60;2355.20;;;;;;5080757;28;20058;-75
2022/06/01 03:14:37;;;;;;;38.83;23.05;;;435.60;2355.20;;;;;;5081220;28;20023;-76
2022/06/01 03:17:04;;;;;;;27.88;21.27;;;435.50;2355.20;;;;;;5080816;28;20028;-76
2022/06/01 03:19:30;;;;;;;31.40;23.77;;;435.40;2355.20;;;;;;5081037;28;20090;-75
2022/06/01 03:21:55;;;;;;;31.30;21.00;;;435.30;2355.20;;;;;;5082728;28;20470;-75
2022/06/01 03:24:21;;;;;;;28.17;21.05;;;435.40;2355.20;;;;;;5081087;28;20025;-76
2022/06/01 03:26:47;;;;;;;28.17;20.55;;;435.40;2355.20;;;;;;5079426;28;20089;-76
2022/06/01 03:29:14;;;;;;;27.58;18.55;;;435.40;2355.20;;;;;;5081002;28;20088;-76
2022/06/01 03:31:41;;;;;;;23.20;18.45;;;435.40;2355.20;;;;;;5081248;28;20028;-75
2022/06/01 03:34:07;;;;;;;25.00;18.05;;;435.30;2355.20;;;;;;5079657;28;20021;-76
2022/06/01 03:36:32;;;;;;;26.05;17.48;;;435.30;2355.20;;;;;;5082875;28;20466;-76
2022/06/01 03:38:58;;;;;;;26.33;18.25;;;435.30;2355.20;;;;;;5079427;28;20031;-75
2022/06/01 03:41:27;;;;;;;27.80;18.98;;;435.30;2355.20;;;;;;5080093;28;20043;-76
2022/06/01 03:46:38;;;;;;;26.05;20.15;;;435.30;2355.20;;;;;;5080907;28;20028;-76
2022/06/01 03:49:04;;;;;;;34.45;22.60;;;435.30;2355.20;;;;;;5081752;28;20024;-75
2022/06/01 03:51:29;;;;;;;30.60;21.85;;;435.30;2355.20;;;;;;5082347;28;20028;-76
2022/06/01 03:53:55;;;;;;;31.35;21.08;;;435.30;2355.20;;;;;;5084273;28;20103;-76
2022/06/01 03:56:22;;;;;;;38.17;25.08;;;435.30;2355.20;;;;;;5085733;28;20020;-76
2022/06/01 03:58:50;;;;;;;41.55;25.95;;;435.30;2355.20;;;;;;5084606;28;20439;-76
2022/06/01 04:01:16;;;;;;;37.30;25.80;;;435.40;2355.20;;;;;;5084271;28;20032;-76
2022/06/01 04:03:42;;;;;;;49.95;26.20;;;435.40;2355.20;;;;;;5084671;28;20027;-76
2022/06/01 04:06:07;;;;;;;36.58;24.25;;;435.50;2355.20;;;;;;5085748;28;20024;-77
2022/06/01 04:08:33;;;;;;;35.28;24.25;;;435.60;2355.20;;;;;;5084336;28;20017;-77
2022/06/01 04:10:59;;;;;;;38.40;25.65;;;435.80;2355.20;;;;;;5084971;28;20046;-76
2022/06/01 04:13:26;;;;;;;34.50;22.77;;;435.80;2355.20;;;;;;5083396;28;20490;-74
2022/06/01 04:15:52;;;;;;;35.30;24.10;;;435.80;2355.20;;;;;;5084332;28;20061;-75
2022/06/01 04:18:18;;;;;;;35.95;25.88;;;435.80;2355.20;;;;;;5084661;28;20056;-75
2022/06/01 04:20:46;;;;;;;42.00;24.65;;;435.80;2355.20;;;;;;5084961;28;20029;-75
2022/06/01 04:23:11;;;;;;;42.67;27.58;;;435.80;2355.20;;;;;;5084121;28;20024;-76
2022/06/01 04:25:37;;;;;;;42.20;26.08;;;435.80;2355.20;;;;;;5084838;28;20020;-76
2022/06/01 04:28:04;;;;;;;42.47;26.95;;;435.80;2355.20;;;;;;5084718;28;20521;-76
2022/06/01 04:30:30;;;;;;;44.13;27.98;;;435.80;2355.20;;;;;;5084311;28;20044;-76
2022/06/01 04:32:56;;;;;;;38.50;26.13;;;435.90;2355.20;;;;;;5085711;28;20024;-76
2022/06/01 04:35:23;;;;;;;45.92;28.27;;;435.90;2355.20;;;;;;5084571;28;20017;-75
2022/06/01 04:37:49;;;;;;;42.92;29.25;;;436.00;2355.20;;;;;;5084209;28;20048;-76
2022/06/01 04:40:17;;;;;;;46.90;28.08;;;436.10;2355.20;;;;;;5084268;28;20028;-75
2022/06/01 04:42:43;;;;;;;50.25;29.70;;;460.80;2380.80;;;;;;5082453;28;20489;-76
2022/06/01 04:45:12;;;;;;;47.63;30.30;;;460.90;2380.80;;;;;;5082141;28;20028;-76
2022/06/01 04:47:38;;;;;;;52.50;29.83;;;461.00;2380.80;;;;;;5085747;28;20384;-77
2022/06/01 04:50:05;;;;;;;54.50;31.00;;;461.00;2380.80;;;;;;5083840;28;20899;-75
2022/06/01 04:52:31;;;;;;;51.38;30.35;;;461.10;2380.80;;;;;;5084124;28;20024;-76
2022/06/01 04:54:57;;;;;;;55.15;30.02;;;461.20;2380.80;;;;;;5079913;28;20159;-76
2022/06/01 04:57:23;;;;;;;57.40;31.75;;;461.20;2380.80;;;;;;5092073;28;20020;-75
2022/06/01 04:59:48;;;;;;;52.35;30.73;;;461.30;2380.80;;;;;;5094448;28;20114;-75
2022/06/01 05:02:15;;;;;;;51.40;31.33;;;461.40;2380.80;;;;;;5094450;28;20114;-74
2022/06/01 05:04:41;;;;;;;52.33;31.45;;;461.20;2380.80;;;;;;5092071;28;20025;-77
2022/06/01 05:07:07;;;;;;;55.08;32.58;;;461.50;2380.80;;;;;;5094778;28;20024;-78
2022/06/01 05:09:33;;;;;;;56.78;32.47;;;461.70;2380.80;;;;;;5087883;28;20021;-77
2022/06/01 05:11:59;;;;;;;53.13;30.92;;;461.70;2380.80;;;;;;5085759;28;20023;-76
2022/06/01 05:14:25;;;;;;;52.63;31.25;;;486.40;2380.80;;;;;;5093290;28;20545;-75
2022/06/01 05:16:51;;;;;;;59.22;31.42;;;486.50;2380.80;;;;;;5092960;28;20024;-76
2022/06/01 05:19:18;;;;;;;49.60;27.95;;;486.60;2380.80;;;;;;5093144;28;20024;-76
2022/06/01 05:21:44;;;;;;;45.63;28.33;;;486.70;2380.80;;;;;;5093131;28;20024;-75
2022/06/01 05:24:10;;;;;;;45.65;27.58;;;486.70;2380.80;;;;;;5094372;28;20157;-74
2022/06/01 05:26:36;;;;;;;52.90;29.45;;;486.80;2380.80;;;;;;5094129;28;20028;-74
2022/06/01 05:29:02;;;;;;;45.20;27.25;;;486.80;2380.80;;;;;;5093882;28;20044;-74
2022/06/01 05:31:28;;;;;;;47.03;27.35;;;486.90;2380.80;;;;;;5108462;28;20032;-75
2022/06/01 05:33:53;;;;;;;45.53;27.42;;;487.00;2380.80;;;;;;5089805;28;20024;-77
2022/06/01 05:36:19;;;;;;;41.75;25.67;;;487.00;2380.80;;;;;;5083937;28;20020;-78
2022/06/01 05:38:48;;;;;;;44.47;27.10;;;487.10;2380.80;;;;;;5080808;28;20036;-75
2022/06/01 05:41:15;;;;;;;50.15;27.73;;;487.20;2380.80;;;;;;5073911;28;20038;-76
2022/06/01 05:43:41;;;;;;;39.38;24.92;;;487.20;2380.80;;;;;;5088692;28;20016;-73
2022/06/01 05:46:07;;;;;;;49.28;27.48;;;487.30;2380.80;;;;;;5079714;28;20089;-75
2022/06/01 05:48:32;;;;;;;41.53;26.20;;;512.00;2380.80;;;;;;5093824;28;20362;-75
2022/06/01 05:50:59;;;;;;;46.45;26.05;;;512.10;2380.80;;;;;;5093759;28;20077;-74
2022/06/01 05:53:25;;;;;;;45.13;27.42;;;512.20;2380.80;;;;;;5088762;28;20047;-74
2022/06/01 05:55:51;;;;;;;40.22;27.10;;;512.20;2380.80;;;;;;5081481;28;20020;-75
2022/06/01 05:58:23;;;;;;;38.63;24.13;;;512.30;2380.80;;;;;;5083712;28;20027;-77
2022/06/01 06:00:50;;;;;;;45.72;26.67;;;512.30;2380.80;;;;;;5089641;28;20468;-74
2022/06/01 06:03:16;;;;;;;43.92;26.10;;;512.50;2380.80;;;;;;5092370;28;20059;-74
2022/06/01 06:08:27;;;;;;;50.03;28.65;;;512.60;2380.80;;;;;;5093530;28;20066;-75
2022/06/01 06:10:53;;;;;;;43.22;25.80;;;512.80;2380.80;;;;;;5093615;28;20023;-76
2022/06/01 06:13:18;;;;;;;47.35;26.08;;;512.90;2380.80;;;;;;5093186;28;20020;-75
2022/06/01 06:15:44;;;;;;;40.20;24.98;;;512.90;2380.80;;;;;;5093514;28;20465;-75
2022/06/01 06:18:12;;;;;;;46.08;28.52;;;537.60;2406.40;;;;;;5093103;28;20024;-76
2022/06/01 06:20:40;;;;;;;43.65;26.65;;;537.70;2406.40;;;;;;5093579;28;20043;-77
2022/06/01 06:23:06;;;;;;;40.15;25.85;;;537.70;2406.40;;;;;;5093207;28;20532;-76
2022/06/01 06:25:32;;;;;;;42.78;24.10;;;537.80;2406.40;;;;;;5093396;28;20107;-76
2022/06/01 06:27:58;;;;;;;40.95;27.77;;;537.80;2406.40;;;;;;5092815;28;20028;-78
2022/06/01 06:30:23;;;;;;;41.95;24.13;;;538.00;2406.40;;;;;;5097329;28;20058;-75
2022/06/01 06:32:49;;;;;;;40.00;23.40;;;538.00;2406.40;;;;;;5100247;28;20020;-77
2022/06/01 06:35:15;;;;;;;40.58;24.13;;;538.20;2406.40;;;;;;5091460;28;20026;-76
2022/06/01 06:37:41;;;;;;;41.95;22.50;;;538.20;2406.40;;;;;;5091491;28;20032;-76
2022/06/01 06:40:08;;;;;;;35.38;24.10;;;538.30;2406.40;;;;;;5077078;28;20031;-76
2022/06/01 06:42:34;;;;;;;35.63;22.55;;;538.40;2406.40;;;;;;5093153;28;20036;-77
2022/06/01 06:45:02;;;;;;;36.75;22.90;;;538.50;2406.40;;;;;;5092799;28;20103;-77
2022/06/01 06:47:29;;;;;;;33.95;21.27;;;563.20;2432.00;;;;;;5092881;28;20016;-77
2022/06/01 06:49:55;;;;;;;31.95;20.27;;;;;;;;;;5092715;28;20051;-76
2022/06/01 06:52:21;;;;;;;38.33;22.00;;;563.30;2432.00;;;;;;5091063;28;20054;-75
2022/06/01 06:54:46;;;;;;;33.22;21.08;;;563.50;2432.00;;;;;;5092525;28;20029;-76
2022/06/01 06:57:12;;;;;;;34.17;21.90;;;;;;;;;;5092347;28;20016;-76
2022/06/01 06:59:38;;;;;;;29.48;19.08;;;563.60;2432.00;;;;;;5091018;28;20378;-76
2022/06/01 07:02:04;;;;;;;29.40;19.38;;;;;;;;;;5092345;28;20046;-77
2022/06/01 07:04:30;;;;;;;31.83;18.83;;;563.80;2432.00;;;;;;5092743;28;20016;-78
2022/06/01 07:06:56;;;;;;;26.13;18.10;;;563.90;2432.00;;;;;;5091070;28;20523;-75
2022/06/01 07:09:22;;;;;;;28.02;17.33;;;564.00;2432.00;;;;;;5097141;28;20074;-75
2022/06/01 07:11:48;;;;;;;30.25;16.35;;;;;;;;;;5091051;28;20052;-75
2022/06/01 07:14:13;;;;;;;30.70;16.35;;;588.80;2432.00;;;;;;5079985;28;20701;-76
2022/06/01 07:16:39;;;;;;;24.02;14.85;;;588.90;2432.00;;;;;;5082115;28;20062;-78
2022/06/01 07:19:06;;;;;;;30.90;15.98;;;589.00;2432.00;;;;;;5080748;28;20128;-75
2022/06/01 07:21:36;;;;;;;23.65;12.20;;;589.10;2432.00;;;;;;5082117;28;20024;-74
2022/06/01 07:24:06;;;;;;;20.23;12.63;;;589.10;2432.00;;;;;;5083681;28;20024;-79
2022/06/01 07:26:35;;;;;;;26.10;13.13;;;589.10;2432.00;;;;;;5090601;28;20055;-76
2022/06/01 07:29:01;;;;;;;19.85;12.18;;;589.20;2432.00;;;;;;5090433;28;20405;-78
2022/06/01 07:31:28;;;;;;;20.75;12.65;;;589.40;2432.00;;;;;;5076726;28;20020;-76
2022/06/01 07:33:54;;;;;;;16.45;11.10;;;589.50;2432.00;;;;;;5090763;28;20491;-76
2022/06/01 07:36:20;;;;;;;20.90;10.80;;;589.60;2432.00;;;;;;5090489;28;20036;-75
2022/06/01 07:44:23;;;;;;;18.75;11.50;;;589.70;2432.00;;;;;;5092513;28;20035;-77
2022/06/01 07:46:49;;;;;;;18.45;10.13;;;589.70;2432.00;;;;;;5076438;28;20024;-77
2022/06/01 07:49:16;;;;;;;26.58;11.63;;;589.70;2432.00;;;;;;5090572;28;20107;-77
2022/06/01 07:51:42;;;;;;;17.17;11.07;;;589.70;2432.00;;;;;;5091012;28;20048;-77
2022/06/01 07:54:09;;;;;;;13.18;7.88;;;614.50;2432.00;;;;;;5090789;28;20477;-77
2022/06/01 07:56:35;;;;;;;13.30;8.95;;;614.50;2432.00;;;;;;5103480;28;20055;-78
2022/06/01 07:59:01;;;;;;;17.35;9.30;;;614.50;2432.00;;;;;;5093015;28;20028;-77
2022/06/01 08:01:27;;;;;;;21.23;10.32;;;614.60;2432.00;;;;;;5090797;28;20046;-78
2022/06/01 08:03:57;;;;;;;13.57;8.98;;;614.70;2432.00;;;;;;5090472;28;20027;-77
2022/06/01 08:06:25;;;;;;;14.15;9.40;;;614.70;2432.00;;;;;;5090691;28;20036;-78
2022/06/01 08:08:51;;;;;;;15.02;8.50;;;614.80;2432.00;;;;;;5091614;28;20167;-76
2022/06/01 08:11:17;;;;;;;15.13;8.30;;;614.80;2432.00;;;;;;5091539;28;20591;-77
2022/06/01 08:13:43;;;;;;;10.43;7.03;;;614.90;2432.00;;;;;;5092026;28;20085;-77
2022/06/01 08:16:09;;;;;;;20.60;7.07;;;614.80;2432.00;;;;;;5091952;28;20099;-75
2022/06/01 08:18:35;;;;;;;8.77;5.13;;;614.90;2432.00;;;;;;5092082;28;20106;-78
2022/06/01 08:21:01;;;;;;;9.70;5.13;;;615.00;2432.00;;;;;;5104695;28;20087;-87
2022/06/01 08:23:30;;;;;;;12.35;6.00;;;615.10;2432.00;;;;;;5088010;28;20024;-82
2022/06/01 08:25:56;;;;;;;10.18;6.10;;;615.20;2432.00;;;;;;5080624;28;20039;-85
2022/06/01 08:28:23;;;;;;;12.77;6.55;;;615.30;2432.00;;;;;;5077753;28;20024;-85
2022/06/01 08:30:50;;;;;;;13.93;6.20;;;640.00;2432.00;;;;;;5073152;28;20032;-87
2022/06/01 08:33:17;;;;;;;12.27;6.47;;;640.10;2432.00;;;;;;5086705;28;20028;-90
2022/06/01 08:35:47;;;;;;;14.57;6.50;;;640.10;2432.00;;;;;;5091473;28;20046;-90
2022/06/01 08:38:13;;;;;;;11.20;5.55;;;640.10;2432.00;;;;;;5087296;28;20122;-89
2022/06/01 08:41:10;;;;;;;11.43;5.90;;;640.10;2432.00;;;;;;5085577;28;20532;-88
2022/06/01 08:43:51;;;;;;;7.80;5.00;;;640.10;2432.00;;;;;;5085937;28;20024;-85
2022/06/01 08:46:18;;;;;;;14.35;6.18;;;640.20;2432.00;;;;;;5095833;28;20028;-90
2022/06/01 08:48:53;;;;;;;15.18;6.00;;;640.30;2432.00;;;;;;5095865;28;20024;-79
2022/06/01 08:51:23;;;;;;;20.48;5.80;;;640.40;2432.00;;;;;;5094819;28;20050;-89
2022/06/01 08:53:49;;;;;;;8.63;5.43;;;640.40;2432.00;;;;;;5094830;28;20020;-89
2022/06/01 08:56:26;;;;;;;13.68;6.28;;;640.40;2432.00;;;;;;5095483;28;20024;-77
2022/06/01 08:59:22;;;;;;;12.07;5.72;;;640.50;2432.00;;;;;;5093701;28;20031;-77
2022/06/01 09:02:22;;;;;;;13.80;7.22;;;640.60;2432.00;;;;;;5089893;28;20505;-80
2022/06/01 09:05:14;;;;;;;12.95;6.75;;;640.80;2432.00;;;;;;5085909;28;20052;-79
2022/06/01 09:07:47;;;;;;;12.55;6.88;;;640.80;2432.00;;;;;;5043389;28;20039;-79
2022/06/01 09:10:23;;;;;;;7.88;4.88;;;640.90;2432.00;;;;;;5043011;28;20114;-78
2022/06/01 09:13:12;;;;;;;9.90;5.15;;;665.60;2432.00;;;;;;5052109;28;20045;-79
2022/06/01 09:15:56;;;;;;;11.77;5.82;;;665.70;2278.40;;;;;;5035502;28;20029;-80
2022/06/01 09:18:24;;;;;;;12.35;6.22;;;;;;;;;;5035757;28;20072;-78
2022/06/01 09:23:35;;;;;;;7.40;4.95;;;;;;;;;;5052483;28;20059;-78
2022/06/01 09:26:03;;;;;;;18.95;7.57;;;666.10;2380.80;;;;;;5035078;28;20446;-84
2022/06/01 09:28:30;;;;;;;6.50;4.10;;;666.30;2201.60;;;;;;5051791;28;20124;-79
2022/06/01 09:31:20;;;;;;;9.73;5.38;;;666.30;1945.60;;;;;;5052297;28;20052;-80
2022/06/01 09:33:46;;;;;;;8.00;4.57;;;666.30;1920.00;;;;;;5051668;28;20391;-77
2022/06/01 09:36:12;;;;;;;6.03;4.15;;;666.50;2022.40;;;;;;5048984;28;20036;-79
2022/06/01 09:38:54;;;;;;;7.43;4.88;;;691.30;1894.40;;;;;;5049416;28;20029;-79
2022/06/01 09:41:21;;;;;;;10.68;5.07;;;691.30;1894.40;;;;;;5046307;28;20120;-77
2022/06/01 09:43:58;;;;;;;9.25;5.07;;;691.40;1945.60;;;;;;5048709;28;20036;-78
2022/06/01 09:46:26;;;;;;;12.25;4.75;;;691.70;1843.20;;;;;;5080620;28;20058;-78
2022/06/01 09:48:52;;;;;;;9.63;5.28;;;691.80;1894.40;;;;;;5092129;28;20036;-79
2022/06/01 09:51:21;;;;;;;12.02;5.95;;;691.90;1843.20;;;;;;5097456;28;20056;-79
2022/06/01 09:53:51;;;;;;;11.93;6.40;;;692.00;1945.60;;;;;;5082961;28;20119;-78
2022/06/01 09:56:40;;;;;;;12.40;4.93;;;716.80;1996.80;;;;;;5082309;28;20443;-77
2022/06/01 10:07:29;;;;;;;10.85;4.97;;;717.30;1740.80;;;;;;5094032;28;20125;-80
2022/06/01 10:10:04;;;;;;;11.07;5.85;;;717.30;1766.40;;;;;;5093469;28;20028;-78
2022/06/01 10:12:43;;;;;;;10.55;5.97;;;717.40;1766.40;;;;;;5085900;28;20028;-77
2022/06/01 10:15:30;;;;;;;10.50;6.13;;;717.40;1740.80;;;;;;5085786;28;20024;-77
2022/06/01 10:18:23;;;;;;;6.85;5.10;;;717.50;1740.80;;;;;;5081331;28;20066;-77
2022/06/01 10:21:11;;;;;;;6.93;4.40;;;717.60;1715.20;;;;;;5022874;28;20033;-77
2022/06/01 10:23:51;;;;;;;7.20;4.63;;;717.70;1689.60;;;;;;5021234;28;20341;-78
2022/06/01 10:26:44;;;;;;;7.00;4.53;;;742.50;1612.80;;;;;;5022835;28;20165;-76
2022/06/01 10:29:11;;;;;;;8.23;4.55;;;742.50;1612.80;;;;;;5019543;28;20503;-76
2022/06/01 10:31:46;;;;;;;6.85;5.00;;;742.60;1664.00;;;;;;5029800;28;20060;-74
2022/06/01 10:34:27;;;;;;;7.10;5.10;;;742.80;1638.40;;;;;;5021746;28;20424;-76
2022/06/01 10:37:13;;;;;;;8.45;4.35;;;742.80;1638.40;;;;;;5027084;28;20518;-75
2022/06/01 10:40:06;;;;;;;6.95;4.63;;;742.80;1664.00;;;;;;5014008;28;20087;-74
2022/06/01 10:45:22;;;;;;;8.13;4.43;;;742.90;1612.80;;;;;;5030750;28;20040;-74
2022/06/01 10:48:13;;;;;;;7.30;4.25;;;743.10;1689.60;;;;;;5030419;28;20447;-76
2022/06/01 10:50:50;;;;;;;10.07;4.65;;;743.20;1587.20;;;;;;5030237;28;20029;-75
2022/06/01 10:53:25;;;;;;;7.07;4.53;;;;;;;;;;5030573;28;20029;-74
2022/06/01 10:55:51;;;;;;;12.73;5.22;;;;;;;;;;5030390;28;20029;-75
2022/06/01 10:58:23;;;;;;;10.05;4.05;;;743.20;1587.20;;;;;;5068593;28;20039;-75
2022/06/01 11:01:08;;;;;;;6.28;3.88;;;743.30;1561.60;;;;;;5095621;28;20512;-75
2022/06/01 11:03:41;;;;;;;11.70;4.25;;;743.30;1536.00;;;;;;5099110;28;20024;-75
2022/06/01 11:06:26;;;;;;;6.68;4.50;;;743.30;1536.00;;;;;;5090979;28;20111;-74
2022/06/01 11:09:05;;;;;;;12.90;4.20;;;743.30;1561.60;;;;;;5092426;28;20477;-74
2022/06/01 11:11:43;;;;;;;9.15;4.15;;;743.30;1536.00;;;;;;5090522;28;20340;-75
2022/06/01 11:14:40;;;;;;;8.30;4.45;;;768.00;1510.40;;;;;;5091994;28;20031;-75
2022/06/01 11:17:29;;;;;;;12.85;4.78;;;768.20;1536.00;;;;;;5086489;28;20038;-75
2022/06/01 11:20:16;;;;;;;12.60;5.00;;;768.20;1536.00;;;;;;5080058;28;20423;-75
2022/06/01 11:23:19;;;;;;;9.30;5.10;;;768.30;1561.60;;;;;;5078859;28;20024;-75
2022/06/01 11:26:12;;;;;;;7.75;3.88;;;768.40;1510.40;;;;;;5030264;28;20069;-75
2022/06/01 11:28:55;;;;;;;12.48;4.50;;;768.40;1536.00;;;;;;5029487;28;20021;-75
2022/06/01 11:31:24;;;;;;;7.45;4.38;;;768.40;1484.80;;;;;;5003001;28;20116;-75
2022/06/01 11:33:57;;;;;;;13.18;5.28;;;768.50;1484.80;;;;;;5021380;28;20045;-75
2022/06/01 11:36:41;;;;;;;9.77;4.55;;;768.60;1510.40;;;;;;5032170;28;20029;-75
2022/06/01 11:39:25;;;;;;;10.45;4.88;;;768.60;1510.40;;;;;;5027104;28;20069;-75
2022/06/01 11:42:01;;;;;;;8.80;4.78;;;768.70;1484.80;;;;;;5020203;28;20065;-75
2022/06/01 11:44:36;;;;;;;8.90;4.82;;;768.60;1510.40;;;;;;5023621;28;20022;-75
2022/06/01 11:47:09;;;;;;;23.08;6.20;;;768.80;1484.80;;;;;;5020555;28;20033;-75
2022/06/01 11:49:39;;;;;;;10.02;4.85;;;768.70;1484.80;;;;;;5023351;28;20084;-74
2022/06/01 11:52:22;;;;;;;27.17;6.65;;;768.90;1484.80;;;;;;5041774;28;20040;-74
2022/06/01 11:55:19;;;;;;;8.50;5.03;;;793.60;1536.00;;;;;;5020674;28;20029;-75
2022/06/01 11:57:46;;;;;;;13.50;5.65;;;768.90;1459.20;;;;;;5024655;28;20035;-74
2022/06/01 12:00:41;;;;;;;10.40;4.70;;;793.60;1484.80;;;;;;5023260;28;20058;-75
2022/06/01 12:03:22;;;;;;;8.77;5.00;;;793.60;1484.80;;;;;;5011830;28;20061;-75
2022/06/01 12:06:08;;;;;;;10.05;5.38;;;793.60;1561.60;;;;;;5019399;28;20546;-75
2022/06/01 12:08:47;;;;;;;9.27;4.97;;;;;;;;;;5022970;28;20045;-74
2022/06/01 12:11:38;;;;;;;8.63;4.82;;;793.80;1484.80;;;;;;5023305;28;20060;-78
2022/06/01 12:14:33;;;;;;;10.02;4.50;;;793.60;1433.60;;;;;;5026644;28;20116;-75
2022/06/01 12:17:26;;;;;;;8.90;4.22;;;793.70;1459.20;;;;;;5013632;28;20076;-75
2022/06/01 12:20:12;;;;;;;8.18;4.43;;;793.70;1459.20;;;;;;5024030;28;20518;-74
2022/06/01 12:28:48;;;;;;;10.60;4.70;;;;;;;;;;5025693;28;20052;-75
2022/06/01 12:31:21;;;;;;;10.38;4.93;;;794.00;1433.60;;;;;;5011726;28;20026;-75
2022/06/01 12:34:13;;;;;;;8.45;4.43;;;794.00;1433.60;;;;;;5024683;28;20537;-73
2022/06/01 12:37:08;;;;;;;11.32;4.95;;;794.10;1459.20;;;;;;5021179;28;20041;-75
2022/06/01 12:39:40;;;;;;;11.13;5.68;;;793.80;1459.20;;;;;;5041361;28;20131;-75
2022/06/01 12:42:27;;;;;;;10.13;5.63;;;793.80;1459.20;;;;;;5082882;28;20028;-73
2022/06/01 12:44:55;;;;;;;13.85;5.97;;;794.00;1433.60;;;;;;5085846;28;20022;-73
2022/06/01 12:47:22;;;;;;;13.02;5.70;;;793.80;1484.80;;;;;;5086185;28;20043;-74
2022/06/01 12:49:48;;;;;;;10.27;5.22;;;768.90;1433.60;;;;;;5091928;28;20419;-74
2022/06/01 12:52:21;;;;;;;11.32;5.85;;;768.90;1433.60;;;;;;5095851;28;20020;-74
2022/06/01 12:54:50;;;;;;;10.55;7.15;;;793.70;1536.00;;;;;;5084037;28;20017;-74
2022/06/01 12:57:25;;;;;;;10.50;6.63;;;793.70;1536.00;;;;;;5083651;28;20024;-74
2022/06/01 13:00:00;;;;;;;14.07;6.75;;;793.80;1536.00;;;;;;5084353;28;20021;-73
2022/06/01 13:02:28;;;;;;;13.55;6.97;;;794.00;1484.80;;;;;;5084087;28;20375;-73
2022/06/01 13:04:56;;;;;;;14.07;6.55;;;793.80;1510.40;;;;;;5101441;28;20043;-74